Aeroporto :
LOGIN :

Iscrizione | Disclaimer

   EN    FR    IT 

 










Sommario :    VFR   VFR Marginale   IFR   IFR Intensivo   IFR Molto Intensivo
Visibilità : 
Base nubi : 
>= 8 km
>= 3000ft
5 / 8 km
1000 / 3000 ft
1500m / 5 km
500 / 1000 ft
800 / 1500m
200 / 500 ft
< 800m
< 200 ft
Simboli :   Temporali  Nebbia  Neve Forte  Precipitazioni Forti  Vento > 20 kt
SIGMETs :   Varie  Temporali  Ghiacco  Turbolenza  Onda orograficha  Ceneri Vulcaniche






- Altitudine del aeroporto : 681 ft
- Codice IATA : OSL


ENGM - Oslo Gardermoen

ULTIMO METAR :
  • 301050Z 36010KT 310V050 9999 VCSH NSC 02/M10 Q1028 NOSIG

METARs OBSOLETI :
  • 301020Z 36008KT 320V020 9999 -SHSNRA SCT047 BKN062 02/M10 Q1028 NOSIG
  • 300950Z 36008KT 320V030 9999 FEW048 BKN067 02/M09 Q1028 NOSIG
  • 300920Z 34008KT 310V010 9999 FEW043 BKN065 02/M09 Q1028 NOSIG
  • 300850Z 35008KT 320V020 CAVOK 01/M09 Q1028 NOSIG
  • 300820Z VRB04KT CAVOK 01/M08 Q1028 NOSIG
  • 300750Z 30005KT 260V340 CAVOK 00/M09 Q1028 NOSIG

TAF TAF ENGM
Valido dal 30 a 06 ore il 31 a 06 ore UTC


3006/3106 36012KT CAVOK
BECMG 3017/3019 VRB05KT
BECMG 3103/3105 19010KT



MetMap, La meteo Aeronautica in un colpo d'occhio ! - Copyright ORBIFLY Dicembre 2007 - Disclaimer

ORBIFLY MET'MAP TEAM :

Programmazione e sviluppo : Alexandra Zaïnal
Concezione : Baudouin d'Aumeries
Aiuto per la programmazione : Marc-Olivier Méhu
Supporto tecnico e logistico : Manuel Goepfert
Aiuto per la traduzione : Arnaldo La Scala

Contatto : metmap@orbifly.com




FONTI E CREDITI :

   NOAA